Bredlow Corner, Arkansas
Current Conditions -  °F | °C
As of 11:35 PM on Wednesday 17 Dec 2014 (Local Time) from KSGT Reporting Station
Overcast Overcast  
Wind Chill: -1°   Ceiling: 8000
Heat Index:   Visibility: 10mi
Dew Point:   Wind: 9mph
Humidity: 87%   Direction: 40°NE
Pressure: 30.28"   Gusts: NA
Location:  34.5894°N, 91.9107°W
Report Text: KSGT 180535Z AUTO 04008KT 10SM OVC080 03/01 A3028 RMK AO1
Loading
Personal Weather Stations






























Interactive Weather Map New forecast layout! Learn more

10-Day Weather Forecast

Advertisements
Track Severe Weather on mobile